Terminal Aerodrome Forecast
Issued by NWS

Home | Current Version | Previous Version | Text Only | Print | Product List | Glossary On
Versions: 1 2 3 4 5 6 7 8 9 10 11 12 13 14 15 16 17 18
000
FTUS43 KDLH 011100
TAFBRD
TAF
KBRD 011120Z 0112/0212 18006KT P6SM SKC
     FM011500 17012G20KT P6SM SCT150
     FM012300 17011KT P6SM SCT080
     FM020800 17009KT P6SM SKC=

USA.gov is the U.S. government's official web portal to all federal, state and local government web resources and services.